createdAt,value
2022-10-11T00:00:20.350Z,101915.59
2022-10-11T00:02:48.255Z,101914.66
2022-10-11T00:05:16.151Z,101910.47
2022-10-11T00:07:44.360Z,101920.56
2022-10-11T00:10:12.545Z,101920.56
2022-10-11T00:12:40.401Z,101918.03
2022-10-11T00:15:13.606Z,101917.56
2022-10-11T00:17:41.482Z,101917.63
2022-10-11T00:20:10.556Z,101925.13
2022-10-11T00:22:39.769Z,101925.97
2022-10-11T00:25:09.662Z,101925.13
2022-10-11T00:27:38.078Z,101922.31
2022-10-11T00:30:07.498Z,101927.47
2022-10-11T00:32:38.420Z,101924.06
2022-10-11T00:35:07.519Z,101925.88
2022-10-11T00:37:37.223Z,101921.91
2022-10-11T00:40:06.669Z,101919.63
2022-10-11T00:42:34.649Z,101916.72
2022-10-11T00:45:39.647Z,101919.53
2022-10-11T00:48:15.501Z,101923.78
2022-10-11T00:50:43.527Z,101925.56
2022-10-11T00:53:12.673Z,101925.44
2022-10-11T00:55:46.110Z,101922.88
2022-10-11T00:58:14.813Z,101923.03
2022-10-11T01:00:42.676Z,101928.34
2022-10-11T01:03:11.921Z,101919.69
2022-10-11T01:05:40.856Z,101925.06
2022-10-11T01:08:09.526Z,101927.00
2022-10-11T01:10:37.401Z,101929.75
2022-10-11T01:13:13.424Z,101939.03
2022-10-11T01:15:47.864Z,101936.25
2022-10-11T01:18:23.123Z,101939.56
2022-10-11T01:21:02.381Z,101940.50
2022-10-11T01:24:04.690Z,101943.19
2022-10-11T01:27:04.851Z,101938.00
2022-10-11T01:29:46.014Z,101937.38
2022-10-11T01:32:18.501Z,101936.38
2022-10-11T01:34:55.821Z,101937.38
2022-10-11T01:37:29.550Z,101943.88
2022-10-11T01:40:03.754Z,101942.94
2022-10-11T01:42:32.181Z,101940.44
2022-10-11T01:45:01.085Z,101939.47
2022-10-11T01:47:30.337Z,101935.06
2022-10-11T01:50:00.370Z,101935.91
2022-10-11T01:52:31.413Z,101933.41
2022-10-11T01:55:24.576Z,101932.56
2022-10-11T01:58:10.943Z,101927.47
2022-10-11T02:00:49.836Z,101924.50
2022-10-11T02:03:28.942Z,101917.56
2022-10-11T02:06:04.551Z,101931.69
2022-10-11T02:08:38.874Z,101927.25
2022-10-11T02:11:11.673Z,101927.13
2022-10-11T02:13:42.432Z,101933.31
2022-10-11T02:16:14.262Z,101930.00
2022-10-11T02:18:48.407Z,101931.66
2022-10-11T02:21:20.601Z,101939.59
2022-10-11T02:23:52.648Z,101941.59
2022-10-11T02:26:22.195Z,101942.13
2022-10-11T02:28:54.078Z,101940.31
2022-10-11T02:31:23.186Z,101943.19
2022-10-11T02:33:59.604Z,101945.13
2022-10-11T02:36:34.713Z,101945.38
2022-10-11T02:39:09.408Z,101942.25
2022-10-11T02:41:40.327Z,101949.63
2022-10-11T02:44:13.036Z,101943.69
2022-10-11T02:46:42.538Z,101952.59
2022-10-11T02:49:13.249Z,101955.16
2022-10-11T02:51:41.101Z,101953.44
2022-10-11T02:54:08.971Z,101956.94
2022-10-11T02:56:36.850Z,101958.66
2022-10-11T02:59:04.851Z,101957.78
2022-10-11T03:01:32.767Z,101955.28
2022-10-11T03:04:00.658Z,101953.28
2022-10-11T03:06:29.880Z,101964.03
2022-10-11T03:08:57.751Z,101961.47
2022-10-11T03:11:25.691Z,101973.31
2022-10-11T03:13:53.572Z,101966.03
2022-10-11T03:16:21.646Z,101967.06
2022-10-11T03:18:49.582Z,101968.13
2022-10-11T03:21:17.507Z,101967.28
2022-10-11T03:23:47.001Z,101969.03
2022-10-11T03:26:14.860Z,101961.91
2022-10-11T03:28:42.790Z,101957.50
2022-10-11T03:31:10.813Z,101965.88
2022-10-11T03:33:38.666Z,101965.75
2022-10-11T03:36:07.696Z,101966.81
2022-10-11T03:38:38.976Z,101969.13
2022-10-11T03:41:08.474Z,101978.22
2022-10-11T03:43:36.705Z,101987.34
2022-10-11T03:46:04.980Z,101972.19
2022-10-11T03:48:32.986Z,101978.09
2022-10-11T03:51:00.937Z,101978.28
2022-10-11T03:53:28.778Z,101991.00
2022-10-11T03:55:57.579Z,101992.47
2022-10-11T03:58:26.908Z,101981.06
2022-10-11T04:00:54.787Z,101982.75
2022-10-11T04:03:22.683Z,101983.75
2022-10-11T04:05:50.767Z,101990.88
2022-10-11T04:08:18.874Z,101990.03
2022-10-11T04:10:46.798Z,101987.44
2022-10-11T04:13:15.017Z,101996.34
2022-10-11T04:15:44.432Z,101998.84
2022-10-11T04:18:13.303Z,102003.44
2022-10-11T04:20:41.194Z,102000.81
2022-10-11T04:23:09.060Z,102006.25
2022-10-11T04:25:39.632Z,102006.13
2022-10-11T04:28:08.872Z,102015.13
2022-10-11T04:30:36.834Z,102012.28
2022-10-11T04:33:06.106Z,102007.09
2022-10-11T04:35:33.990Z,102016.25
2022-10-11T04:38:01.890Z,102009.50
2022-10-11T04:40:29.808Z,102015.28
2022-10-11T04:42:57.692Z,102016.56
2022-10-11T04:45:26.259Z,102018.91
2022-10-11T04:47:54.136Z,102022.69
2022-10-11T04:50:23.393Z,102016.25
2022-10-11T04:52:51.218Z,102010.06
2022-10-11T04:55:19.489Z,102012.88
2022-10-11T04:57:47.417Z,102013.69
2022-10-11T05:00:16.229Z,102011.03
2022-10-11T05:02:44.156Z,102005.94
2022-10-11T05:05:12.983Z,102011.19
2022-10-11T05:07:42.236Z,102005.81
2022-10-11T05:10:11.437Z,102007.78
2022-10-11T05:12:39.354Z,102004.69
2022-10-11T05:15:14.957Z,102005.53
2022-10-11T05:17:42.796Z,102000.16
2022-10-11T05:20:12.643Z,102000.88
2022-10-11T05:22:41.973Z,102013.53
2022-10-11T05:25:10.504Z,102003.03
2022-10-11T05:27:38.457Z,102000.94
2022-10-11T05:30:07.376Z,101998.56
2022-10-11T05:32:35.325Z,102016.81
2022-10-11T05:35:03.199Z,102010.84
2022-10-11T05:37:31.156Z,102017.13
2022-10-11T05:40:00.410Z,102017.81
2022-10-11T05:42:28.278Z,102017.22
2022-10-11T05:44:56.305Z,102024.03
2022-10-11T05:47:24.272Z,102007.69
2022-10-11T05:49:52.235Z,102019.72
2022-10-11T05:52:21.583Z,102012.28
2022-10-11T05:54:49.988Z,102019.56
2022-10-11T05:57:19.212Z,102024.78
2022-10-11T05:59:47.277Z,102028.16
2022-10-11T06:02:15.134Z,102030.25
2022-10-11T06:04:43.085Z,102026.72
2022-10-11T06:07:10.970Z,102032.91
2022-10-11T06:09:39.754Z,102035.63
2022-10-11T06:12:08.039Z,102031.25
2022-10-11T06:14:37.296Z,102034.78
2022-10-11T06:17:05.107Z,102030.97
2022-10-11T06:19:33.421Z,102028.38
2022-10-11T06:22:01.529Z,102027.28
2022-10-11T06:24:29.752Z,102041.72
2022-10-11T06:26:57.920Z,102041.22
2022-10-11T06:29:25.998Z,102044.00
2022-10-11T06:31:55.428Z,102049.28
2022-10-11T06:34:23.625Z,102054.06
2022-10-11T06:37:07.921Z,102059.94
2022-10-11T06:39:36.004Z,102061.50
2022-10-11T06:42:03.869Z,102066.75
2022-10-11T06:44:31.974Z,102062.44
2022-10-11T06:47:01.317Z,102068.59
2022-10-11T06:49:32.022Z,102069.34
2022-10-11T06:52:00.221Z,102066.91
2022-10-11T06:54:28.422Z,102062.88
2022-10-11T06:56:56.534Z,102064.63
2022-10-11T06:59:24.505Z,102071.16
2022-10-11T07:01:52.598Z,102070.44
2022-10-11T07:04:21.970Z,102071.25
2022-10-11T07:06:50.111Z,102073.25
2022-10-11T07:09:18.103Z,102074.91
2022-10-11T07:11:47.795Z,102071.25
2022-10-11T07:14:15.944Z,102073.94
2022-10-11T07:16:43.970Z,102069.19
2022-10-11T07:19:12.007Z,102073.13
2022-10-11T07:21:41.594Z,102081.00
2022-10-11T07:24:09.876Z,102092.00
2022-10-11T07:26:38.837Z,102082.63
2022-10-11T07:29:07.874Z,102089.88
2022-10-11T07:31:37.551Z,102095.19
2022-10-11T07:34:05.579Z,102092.38
2022-10-11T07:36:33.737Z,102095.91
2022-10-11T07:39:05.170Z,102098.47
2022-10-11T07:41:33.126Z,102108.25
2022-10-11T07:44:01.127Z,102107.03
2022-10-11T07:46:29.367Z,102114.25
2022-10-11T07:48:57.464Z,102102.63
2022-10-11T07:51:25.809Z,102108.59
2022-10-11T07:53:56.683Z,102102.28
2022-10-11T07:56:28.491Z,102094.16
2022-10-11T07:58:58.849Z,102098.84
2022-10-11T08:01:28.442Z,102093.56
2022-10-11T08:03:57.935Z,102094.91
2022-10-11T08:06:29.367Z,102087.59
2022-10-11T08:08:58.578Z,102083.25
2022-10-11T08:11:30.148Z,102088.25
2022-10-11T08:13:58.951Z,102081.25
2022-10-11T08:16:29.929Z,102087.06
2022-10-11T08:18:58.154Z,102086.94
2022-10-11T08:21:26.893Z,102085.06
2022-10-11T08:23:54.957Z,102081.47
2022-10-11T08:26:23.290Z,102082.06
2022-10-11T08:28:53.031Z,102077.41
2022-10-11T08:31:21.345Z,102084.53
2022-10-11T08:33:49.348Z,102071.66
2022-10-11T08:36:17.366Z,102075.19
2022-10-11T08:38:45.387Z,102072.16
2022-10-11T08:41:27.252Z,102067.28
2022-10-11T08:44:18.633Z,102077.06
2022-10-11T08:46:51.651Z,102082.34
2022-10-11T08:49:25.751Z,102070.00
2022-10-11T08:52:02.350Z,102074.03
2022-10-11T08:54:38.172Z,102067.81
2022-10-11T08:57:08.817Z,102064.88
2022-10-11T08:59:46.174Z,102068.00
2022-10-11T09:02:23.425Z,102059.78
2022-10-11T09:04:53.398Z,102055.28
2022-10-11T09:07:32.099Z,102060.25
2022-10-11T09:10:10.864Z,102061.56
2022-10-11T09:12:51.894Z,102059.56
2022-10-11T09:15:29.987Z,102061.22
2022-10-11T09:18:12.544Z,102063.84
2022-10-11T09:20:58.190Z,102060.81
2022-10-11T09:23:45.377Z,102062.22
2022-10-11T09:26:19.908Z,102056.97
2022-10-11T09:29:00.879Z,102067.34
2022-10-11T09:31:31.714Z,102070.41
2022-10-11T09:34:07.055Z,102063.06
2022-10-11T09:36:40.708Z,102067.16
2022-10-11T09:39:19.669Z,102074.34
2022-10-11T09:41:55.221Z,102081.75
2022-10-11T09:44:25.237Z,102087.28
2022-10-11T09:46:56.399Z,102098.22
2022-10-11T09:49:30.246Z,102100.59
2022-10-11T09:52:01.993Z,102115.84
2022-10-11T09:54:41.212Z,102122.63
2022-10-11T09:57:20.480Z,102122.84
2022-10-11T10:00:01.213Z,102132.56
2022-10-11T10:02:50.226Z,102141.63
2022-10-11T10:05:21.101Z,102143.34
2022-10-11T10:08:04.516Z,102147.34
2022-10-11T10:10:38.661Z,102152.28
2022-10-11T10:13:19.342Z,102162.53
2022-10-11T10:15:50.844Z,102167.06
2022-10-11T10:18:24.550Z,102172.19
2022-10-11T10:20:54.971Z,102180.31
2022-10-11T10:23:25.794Z,102186.19
2022-10-11T10:26:09.954Z,102195.94
2022-10-11T10:28:38.174Z,102210.22
2022-10-11T10:31:21.368Z,102215.09
2022-10-11T10:33:53.578Z,102216.91
2022-10-11T10:36:25.537Z,102233.47
2022-10-11T10:39:00.487Z,102241.81
2022-10-11T10:41:28.732Z,102240.88
2022-10-11T10:43:59.555Z,102237.44
2022-10-11T10:46:47.423Z,102246.19
2022-10-11T10:49:52.421Z,102253.97
2022-10-11T10:52:43.007Z,102257.63
2022-10-11T10:55:22.622Z,102254.69
2022-10-11T10:58:05.341Z,102257.25
2022-10-11T11:00:40.448Z,102258.13
2022-10-11T11:03:14.900Z,102259.38
2022-10-11T11:05:48.877Z,102262.91
2022-10-11T11:08:40.142Z,102262.22
2022-10-11T11:11:20.198Z,102270.38
2022-10-11T11:13:59.552Z,102273.72
2022-10-11T11:16:34.426Z,102263.78
2022-10-11T11:19:10.228Z,102268.84
2022-10-11T11:21:56.392Z,102264.22
2022-10-11T11:24:49.256Z,102265.09
2022-10-11T11:27:32.629Z,102262.41
2022-10-11T11:30:09.333Z,102259.59
2022-10-11T11:33:02.557Z,102254.25
2022-10-11T11:35:38.046Z,102265.31
2022-10-11T11:38:59.624Z,102263.03
2022-10-11T11:41:56.478Z,102260.34
2022-10-11T11:44:35.750Z,102255.03
2022-10-11T11:47:42.955Z,102263.25
2022-10-11T11:50:24.776Z,102250.22
2022-10-11T11:52:59.312Z,102251.38
2022-10-11T12:01:31.077Z,102260.34
2022-10-11T12:07:30.527Z,102265.84
2022-10-11T12:10:18.513Z,102253.22
2022-10-11T12:12:47.414Z,102258.38
2022-10-11T12:15:24.503Z,102264.41
2022-10-11T12:18:17.789Z,102271.69
2022-10-11T12:20:46.225Z,102267.44
2022-10-11T12:23:41.618Z,102271.47
2022-10-11T12:26:40.473Z,102272.16
2022-10-11T12:29:46.810Z,102269.63
2022-10-11T12:32:49.407Z,102275.03
2022-10-11T12:35:51.363Z,102271.31
2022-10-11T12:38:23.122Z,102264.75
2022-10-11T12:40:54.780Z,102270.59
2022-10-11T12:43:37.262Z,102264.31
2022-10-11T12:46:34.526Z,102262.44
2022-10-11T12:49:17.492Z,102270.16
2022-10-11T12:51:54.619Z,102260.69
2022-10-11T12:54:39.554Z,102256.19
2022-10-11T12:57:40.493Z,102258.22
2022-10-11T13:00:24.136Z,102255.53
2022-10-11T13:02:52.881Z,102253.53
2022-10-11T13:05:32.139Z,102247.56
2022-10-11T13:08:06.962Z,102238.06
2022-10-11T13:10:43.582Z,102239.41
2022-10-11T13:13:21.832Z,102235.34
2022-10-11T13:15:54.662Z,102237.19
2022-10-11T13:18:37.543Z,102234.56
2022-10-11T13:21:26.569Z,102232.25
2022-10-11T13:24:02.232Z,102238.28
2022-10-11T13:26:32.339Z,102236.00
2022-10-11T13:29:01.982Z,102237.25
2022-10-11T13:31:30.014Z,102241.38
2022-10-11T13:34:00.096Z,102236.28
2022-10-11T13:36:28.668Z,102235.94
2022-10-11T13:38:58.789Z,102239.34
2022-10-11T13:41:28.291Z,102246.78
2022-10-11T13:43:57.991Z,102234.03
2022-10-11T13:46:29.294Z,102229.56
2022-10-11T13:49:02.176Z,102230.88
2022-10-11T13:51:33.607Z,102231.09
2022-10-11T13:54:04.182Z,102224.84
2022-10-11T13:56:35.959Z,102216.69
2022-10-11T13:59:04.367Z,102220.53
2022-10-11T14:01:41.215Z,102210.81
2022-10-11T14:04:10.984Z,102208.91
2022-10-11T14:06:47.873Z,102212.09
2022-10-11T14:09:22.491Z,102212.03
2022-10-11T14:11:51.018Z,102212.66
2022-10-11T14:14:42.185Z,102212.22
2022-10-11T14:17:18.462Z,102209.88
2022-10-11T14:19:47.833Z,102208.78
2022-10-11T14:22:17.520Z,102210.63
2022-10-11T14:24:48.844Z,102207.81
2022-10-11T14:27:19.951Z,102206.59
2022-10-11T14:30:00.422Z,102211.16
2022-10-11T14:32:38.016Z,102205.38
2022-10-11T14:35:06.896Z,102203.94
2022-10-11T14:37:40.353Z,102203.94
2022-10-11T14:40:13.968Z,102210.34
2022-10-11T14:42:41.994Z,102204.22
2022-10-11T14:45:11.233Z,102202.22
2022-10-11T14:47:43.100Z,102207.13
2022-10-11T14:50:27.527Z,102202.13
2022-10-11T14:52:56.472Z,102213.59
2022-10-11T14:55:25.229Z,102207.03
2022-10-11T14:57:53.276Z,102202.06
2022-10-11T15:00:23.729Z,102198.34
2022-10-11T15:02:55.364Z,102192.22
2022-10-11T15:05:27.698Z,102196.59
2022-10-11T15:07:58.278Z,102196.34
2022-10-11T15:10:28.666Z,102183.19
2022-10-11T15:12:57.442Z,102190.28
2022-10-11T15:15:27.912Z,102182.00
2022-10-11T15:17:59.299Z,102182.84
2022-10-11T15:20:35.898Z,102177.84
2022-10-11T15:23:04.589Z,102179.00
2022-10-11T15:25:33.093Z,102171.19
2022-10-11T15:28:01.572Z,102179.25
2022-10-11T15:30:34.867Z,102176.00
2022-10-11T15:33:06.751Z,102178.09
2022-10-11T15:35:34.907Z,102172.66
2022-10-11T15:38:02.958Z,102177.53
2022-10-11T15:40:34.813Z,102178.16
2022-10-11T15:43:03.633Z,102181.13
2022-10-11T15:45:32.061Z,102177.63
2022-10-11T15:48:03.233Z,102181.72
2022-10-11T15:50:35.219Z,102186.34
2022-10-11T15:53:03.875Z,102184.75
2022-10-11T15:55:33.262Z,102179.56
2022-10-11T15:58:02.233Z,102175.50
2022-10-11T16:00:30.895Z,102182.84
2022-10-11T16:02:59.935Z,102170.56
2022-10-11T16:05:29.415Z,102170.97
2022-10-11T16:07:58.987Z,102165.63
2022-10-11T16:10:27.039Z,102168.72
2022-10-11T16:12:55.289Z,102178.16
2022-10-11T16:15:24.349Z,102168.34
2022-10-11T16:17:52.634Z,102170.41
2022-10-11T16:20:22.375Z,102166.31
2022-10-11T16:22:51.202Z,102161.19
2022-10-11T16:25:21.799Z,102161.50
2022-10-11T16:28:01.647Z,102155.66
2022-10-11T16:30:30.660Z,102159.94
2022-10-11T16:32:59.036Z,102148.44
2022-10-11T16:35:32.440Z,102155.31
2022-10-11T16:38:02.157Z,102142.09
2022-10-11T16:40:31.534Z,102144.38
2022-10-11T16:43:07.370Z,102144.97
2022-10-11T16:57:28.821Z,102142.50
2022-10-11T16:59:59.093Z,102136.47
2022-10-11T17:02:32.324Z,102134.31
2022-10-11T17:05:01.020Z,102140.88
2022-10-11T17:07:29.944Z,102149.13
2022-10-11T17:10:03.666Z,102141.28
2022-10-11T17:12:52.447Z,102149.69
2022-10-11T17:19:45.046Z,102138.09
2022-10-11T17:22:17.840Z,102136.78
2022-10-11T17:24:47.052Z,102134.41
2022-10-11T17:27:28.637Z,102135.56
2022-10-11T17:30:43.807Z,102135.69
2022-10-11T17:33:58.941Z,102134.34
2022-10-11T18:21:39.764Z,102124.66
2022-10-11T18:30:02.388Z,102122.22
2022-10-11T18:32:37.416Z,102127.81
2022-10-11T18:35:14.451Z,102119.94
2022-10-11T18:37:44.872Z,102118.31
2022-10-11T18:40:15.260Z,102119.28
2022-10-11T18:42:59.142Z,102112.00
2022-10-11T18:45:44.056Z,102114.03
2022-10-11T18:52:18.924Z,102113.47
2022-10-11T18:55:11.577Z,102107.31
2022-10-11T18:57:43.028Z,102105.69
2022-10-11T19:00:49.373Z,102109.41
2022-10-11T19:03:17.773Z,102101.50
2022-10-11T19:29:45.925Z,102098.84
2022-10-11T19:32:35.695Z,102097.41
2022-10-11T19:35:28.158Z,102096.66
2022-10-11T19:38:07.162Z,102090.75
2022-10-11T19:58:53.643Z,102101.75
2022-10-11T20:01:54.124Z,102095.53
2022-10-11T20:05:04.932Z,102105.91
2022-10-11T20:07:33.653Z,102105.06
2022-10-11T20:13:21.233Z,102098.78
2022-10-11T20:16:46.615Z,102098.66
2022-10-11T20:20:16.578Z,102089.06
2022-10-11T20:22:46.808Z,102091.88
2022-10-11T20:25:18.255Z,102090.94
2022-10-11T20:27:47.034Z,102095.41
2022-10-11T20:30:15.578Z,102098.03
2022-10-11T20:32:43.922Z,102091.00
2022-10-11T20:35:12.032Z,102088.28
2022-10-11T20:37:47.873Z,102089.19
2022-10-11T20:40:16.601Z,102091.88
2022-10-11T20:42:47.118Z,102084.78
2022-10-11T20:45:17.719Z,102088.16
2022-10-11T20:47:48.793Z,102089.19
2022-10-11T20:50:22.115Z,102089.19
2022-10-11T20:52:55.853Z,102091.81
2022-10-11T20:55:23.924Z,102085.41
2022-10-11T20:57:52.546Z,102087.25
2022-10-11T21:00:20.964Z,102084.28
2022-10-11T21:02:51.187Z,102088.84
2022-10-11T21:05:19.351Z,102081.56
2022-10-11T21:07:51.914Z,102091.09
2022-10-11T21:10:24.538Z,102081.97
2022-10-11T21:15:41.814Z,102083.63
2022-10-11T21:18:10.007Z,102085.41
2022-10-11T21:20:40.809Z,102086.84
2022-10-11T21:23:09.707Z,102076.06
2022-10-11T21:25:46.673Z,102083.13
2022-10-11T21:28:14.871Z,102081.59
2022-10-11T21:30:43.012Z,102079.44
2022-10-11T21:33:11.101Z,102079.22
2022-10-11T21:35:40.273Z,102070.41
2022-10-11T21:38:13.909Z,102073.41
2022-10-11T21:40:43.638Z,102076.97
2022-10-11T21:43:12.540Z,102070.69
2022-10-11T21:45:40.670Z,102072.56
2022-10-11T21:48:08.898Z,102079.81
2022-10-11T21:50:37.132Z,102083.25
2022-10-11T21:53:05.353Z,102085.13
2022-10-11T21:55:33.436Z,102087.00
2022-10-11T21:58:02.913Z,102085.59
2022-10-11T22:00:31.163Z,102084.97
2022-10-11T22:02:59.313Z,102088.78
2022-10-11T22:05:27.483Z,102086.44
2022-10-11T22:07:55.686Z,102083.00
2022-10-11T22:10:23.816Z,102091.88
2022-10-11T22:12:52.009Z,102077.94
2022-10-11T22:15:21.518Z,102076.34
2022-10-11T22:17:49.682Z,102077.19
2022-10-11T22:20:17.922Z,102076.50
2022-10-11T22:22:46.034Z,102068.50
2022-10-11T22:25:14.156Z,102069.41
2022-10-11T22:27:42.433Z,102076.69
2022-10-11T22:30:12.304Z,102074.84
2022-10-11T22:32:42.030Z,102073.31
2022-10-11T22:35:10.367Z,102068.28
2022-10-11T22:37:38.605Z,102069.25
2022-10-11T22:40:08.196Z,102071.66
2022-10-11T22:42:36.337Z,102063.00
2022-10-11T22:45:05.063Z,102060.38
2022-10-11T22:47:33.395Z,102065.88
2022-10-11T22:50:03.129Z,102061.72
2022-10-11T22:52:31.250Z,102070.50
2022-10-11T22:54:59.422Z,102070.69
2022-10-11T22:57:27.645Z,102059.84
2022-10-11T22:59:55.771Z,102061.78
2022-10-11T23:02:23.973Z,102063.56
2022-10-11T23:04:52.453Z,102053.09
2022-10-11T23:07:22.032Z,102061.53
2022-10-11T23:09:50.225Z,102060.63
2022-10-11T23:12:18.636Z,102052.81
2022-10-11T23:14:46.790Z,102055.44
2022-10-11T23:17:14.937Z,102054.72
2022-10-11T23:19:43.201Z,102053.78
2022-10-11T23:22:11.428Z,102057.63
2022-10-11T23:24:40.942Z,102065.00
2022-10-11T23:27:09.088Z,102058.50
2022-10-11T23:29:40.078Z,102047.22
2022-10-11T23:32:08.847Z,102047.75
2022-10-11T23:34:37.497Z,102053.47
2022-10-11T23:37:06.265Z,102050.03
2022-10-11T23:39:34.470Z,102040.41
2022-10-11T23:42:04.187Z,102051.16
2022-10-11T23:44:32.371Z,102038.88
2022-10-11T23:47:00.537Z,102040.28
2022-10-11T23:49:28.720Z,102048.53
2022-10-11T23:51:57.280Z,102045.06
2022-10-11T23:54:25.456Z,102050.59
2022-10-11T23:56:53.640Z,102061.34
2022-10-11T23:59:23.090Z,102052.38
